Time;durP1;ratioP1;P1;durP2;ratioP2;P2;SDS_P1;SDS_P2;PMS_P1;PMS_P2;Temp;Humidity;BMP_temperature;BMP_pressure;BME280_temperature;BME280_humidity;BME280_pressure;Samples;Min_cycle;Max_cycle;Signal;HPM_P1;HPM_P2
2023/06/06 00:01:34;;;;;;;;;;;;;;;;;;5111747;28;19908;-63
2023/06/06 00:05:01;;;;;;;;;;;;;;;;;;5111573;27;19912;-62
2023/06/06 00:10:10;;;;;;;;;;;;;;;;;;5112346;27;19912;-63
2023/06/06 00:12:36;;;;;;;;;;;;;;;;;;5111362;28;19923;-63
2023/06/06 00:15:03;;;;;;;;;;;;;;;;;;5110466;28;19908;-63
2023/06/06 00:17:29;;;;;;;;;;;;;;;;;;5111680;28;19908;-63
2023/06/06 00:19:56;;;;;;;;;;;;;;;;;;5111226;28;19908;-63
2023/06/06 00:24:35;;;;;;;;;;;;;;;;;;5092233;28;19919;-63
2023/06/06 00:27:01;;;;;;;;;;;;;;;;;;5089762;28;19999;-63
2023/06/06 00:29:27;;;;;;;;;;;;;;;;;;5090035;28;19908;-63
2023/06/06 00:31:52;;;;;;;;;;;;;;;;;;5089994;28;19959;-63
2023/06/06 00:34:18;;;;;;;;;;;;;;;;;;5090811;28;19909;-63
2023/06/06 00:39:32;;;;;;;;;;;;;;;;;;5132087;27;19912;-64
2023/06/06 00:41:58;;;;;;;;;;;;;;;;;;5132288;28;20007;-64
2023/06/06 00:45:36;;;;;;;;;;;;;;;;;;5112338;27;19923;-63
2023/06/06 00:49:56;;;;;;;;;;;;;;;;;;5091712;27;19919;-64
2023/06/06 00:52:22;;;;;;;;;;;;;;;;;;5090077;28;19991;-62
2023/06/06 00:54:48;;;;;;;;;;;;;;;;;;5090897;28;19908;-63
2023/06/06 01:00:32;;;;;;;;;;;;;;;;;;5111556;27;19922;-62
2023/06/06 01:03:00;;;;;;;;;;;;;;;;;;5111783;28;20393;-62
2023/06/06 01:05:26;;;;;;;;;;;;;;;;;;5111732;28;19947;-62
2023/06/06 01:07:53;;;;;;;;;;;;;;;;;;5111283;28;19908;-62
2023/06/06 01:10:20;;;;;;;;;;;;;;;;;;5111543;28;19912;-63
2023/06/06 01:17:18;;;;;;;;;;;;;;;;;;5112027;27;19912;-64
2023/06/06 01:19:47;;;;;;;;;;;;;;;;;;5111729;28;20429;-63
2023/06/06 01:23:24;;;;;;;;;;;;;;;;;;5152671;27;19918;-62
2023/06/06 01:25:50;;;;;;;;;;;;;;;;;;5152911;27;19911;-62
2023/06/06 01:28:17;;;;;;;;;;;;;;;;;;5152452;27;19911;-62
2023/06/06 01:30:43;;;;;;;;;;;;;;;;;;5134268;27;20301;-62
2023/06/06 01:33:09;;;;;;;;;;;;;;;;;;5152776;27;19907;-62
2023/06/06 01:39:15;;;;;;;;;;;;;;;;;;5092185;27;20288;-65
2023/06/06 01:41:41;;;;;;;;;;;;;;;;;;5090069;28;19955;-65
2023/06/06 01:44:07;;;;;;;;;;;;;;;;;;5090910;28;19946;-65
2023/06/06 01:46:33;;;;;;;;;;;;;;;;;;5091258;28;19909;-62
2023/06/06 01:49:00;;;;;;;;;;;;;;;;;;5091199;28;20037;-62
2023/06/06 01:54:19;;;;;;;;;;;;;;;;;;5133163;27;19916;-62
2023/06/06 01:56:45;;;;;;;;;;;;;;;;;;5113444;28;19995;-63
2023/06/06 01:59:30;;;;;;;;;;;;;;;;;;5112107;27;20399;-63
2023/06/06 02:01:56;;;;;;;;;;;;;;;;;;5110470;28;19912;-63
2023/06/06 02:04:22;;;;;;;;;;;;;;;;;;5111297;28;20363;-63
2023/06/06 02:06:48;;;;;;;;;;;;;;;;;;5111697;28;19915;-62
2023/06/06 02:09:14;;;;;;;;;;;;;;;;;;5110332;28;20283;-62
2023/06/06 02:11:40;;;;;;;;;;;;;;;;;;5109923;28;19946;-62
2023/06/06 02:14:08;;;;;;;;;;;;;;;;;;5111499;28;19908;-63
2023/06/06 02:18:26;;;;;;;;;;;;;;;;;;5132222;27;20030;-63
2023/06/06 02:20:52;;;;;;;;;;;;;;;;;;5130960;28;20391;-64
2023/06/06 02:25:27;;;;;;;;;;;;;;;;;;5111730;27;19912;-62
2023/06/06 02:28:35;;;;;;;;;;;;;;;;;;5112350;27;20384;-63
2023/06/06 02:31:03;;;;;;;;;;;;;;;;;;5110470;28;19947;-63
2023/06/06 02:34:55;;;;;;;;;;;;;;;;;;5112179;27;20376;-62
2023/06/06 02:37:21;;;;;;;;;;;;;;;;;;5110472;28;20003;-64
2023/06/06 02:43:00;;;;;;;;;;;;;;;;;;5153549;27;20018;-63
2023/06/06 02:45:26;;;;;;;;;;;;;;;;;;5153131;27;19916;-62
2023/06/06 02:47:52;;;;;;;;;;;;;;;;;;5152408;27;19937;-62
2023/06/06 02:50:19;;;;;;;;;;;;;;;;;;5152816;27;19967;-62
2023/06/06 02:52:46;;;;;;;;;;;;;;;;;;5152497;27;19942;-63
2023/06/06 02:57:36;;;;;;;;;;;;;;;;;;5092049;27;19912;-62
2023/06/06 03:00:07;;;;;;;;;;;;;;;;;;5090990;28;20448;-64
2023/06/06 03:02:33;;;;;;;;;;;;;;;;;;5091475;28;19908;-64
2023/06/06 03:08:00;;;;;;;;;;;;;;;;;;5111663;27;20376;-62
2023/06/06 03:10:26;;;;;;;;;;;;;;;;;;5111716;28;20315;-63
2023/06/06 03:12:52;;;;;;;;;;;;;;;;;;5111730;28;19912;-63
2023/06/06 03:15:18;;;;;;;;;;;;;;;;;;5109905;28;19951;-63
2023/06/06 03:17:44;;;;;;;;;;;;;;;;;;5111615;28;19912;-63
2023/06/06 03:20:12;;;;;;;;;;;;;;;;;;5110239;28;19908;-63
2023/06/06 03:23:08;;;;;;;;;;;;;;;;;;5111771;27;20394;-62
2023/06/06 03:28:48;;;;;;;;;;;;;;;;;;5111793;27;19916;-62
2023/06/06 03:31:15;;;;;;;;;;;;;;;;;;5112286;28;20003;-62
2023/06/06 03:33:40;;;;;;;;;;;;;;;;;;5112253;28;19915;-62
2023/06/06 03:36:07;;;;;;;;;;;;;;;;;;5111225;28;20368;-62
2023/06/06 03:39:46;;;;;;;;;;;;;;;;;;5112626;27;19916;-63
2023/06/06 03:45:05;;;;;;;;;;;;;;;;;;5091482;27;20474;-62
2023/06/06 03:51:27;;;;;;;;;;;;;;;;;;5091513;27;19916;-63
2023/06/06 03:56:43;;;;;;;;;;;;;;;;;;5071086;28;19923;-64
2023/06/06 04:01:58;;;;;;;;;;;;;;;;;;5112346;27;19912;-63
2023/06/06 04:06:37;;;;;;;;;;;;;;;;;;5112571;27;19912;-64
2023/06/06 04:09:04;;;;;;;;;;;;;;;;;;5111809;28;20360;-64
2023/06/06 04:11:40;;;;;;;;;;;;;;;;;;5091250;27;20284;-64
2023/06/06 04:19:34;;;;;;;;;;;;;;;;;;5092121;28;19927;-62
2023/06/06 04:23:50;;;;;;;;;;;;;;;;;;5111965;27;19916;-63
2023/06/06 04:29:37;;;;;;;;;;;;;;;;;;5110314;27;19916;-62
2023/06/06 04:35:04;;;;;;;;;;;;;;;;;;5091035;28;19916;-62
2023/06/06 04:37:31;;;;;;;;;;;;;;;;;;5091341;28;20007;-63
2023/06/06 04:40:00;;;;;;;;;;;;;;;;;;5090814;28;19916;-64
2023/06/06 04:42:32;;;;;;;;;;;;;;;;;;5090291;28;19915;-64
2023/06/06 04:48:08;;;;;;;;;;;;;;;;;;5109689;27;20296;-60
2023/06/06 04:58:41;;;;;;;;;;;;;;;;;;5148807;27;20531;-60
2023/06/06 05:02:51;;;;;;;;;;;;;;;;;;5149055;27;19915;-61
2023/06/06 05:05:18;;;;;;;;;;;;;;;;;;5149200;27;20385;-62
2023/06/06 05:07:44;;;;;;;;;;;;;;;;;;5150758;27;20389;-61
2023/06/06 05:10:10;;;;;;;;;;;;;;;;;;5149598;27;20334;-61
2023/06/06 05:13:58;;;;;;;;;;;;;;;;;;5130264;27;19923;-63
2023/06/06 05:16:25;;;;;;;;;;;;;;;;;;5128230;28;20015;-61
2023/06/06 05:18:51;;;;;;;;;;;;;;;;;;5128105;27;19912;-61
2023/06/06 05:22:56;;;;;;;;;;;;;;;;;;5103102;27;20296;-62
2023/06/06 05:25:22;;;;;;;;;;;;;;;;;;5087573;28;19917;-63
2023/06/06 05:27:51;;;;;;;;;;;;;;;;;;5086476;28;19912;-63
2023/06/06 05:30:20;;;;;;;;;;;;;;;;;;5088446;28;19916;-64
2023/06/06 05:34:06;;;;;;;;;;;;;;;;;;5022763;27;2444325;-63
2023/06/06 05:36:32;;;;;;;;;;;;;;;;;;5098251;28;19912;-65
2023/06/06 05:42:00;;;;;;;;;;;;;;;;;;5162305;27;19927;-63
2023/06/06 05:44:26;;;;;;;;;;;;;;;;;;5148949;27;19911;-64
2023/06/06 05:46:55;;;;;;;;;;;;;;;;;;5146110;27;19921;-64
2023/06/06 05:52:33;;;;;;;;;;;;;;;;;;5103315;27;19920;-66
2023/06/06 05:54:59;;;;;;;;;;;;;;;;;;5109544;28;19912;-62
2023/06/06 05:57:25;;;;;;;;;;;;;;;;;;5109393;28;19914;-63
2023/06/06 05:59:52;;;;;;;;;;;;;;;;;;5109530;28;19915;-63
2023/06/06 06:02:18;;;;;;;;;;;;;;;;;;5108627;28;19951;-63
2023/06/06 06:04:45;;;;;;;;;;;;;;;;;;5106588;28;20379;-63
2023/06/06 06:07:11;;;;;;;;;;;;;;;;;;5103150;28;19955;-64
2023/06/06 06:09:37;;;;;;;;;;;;;;;;;;5109677;28;19918;-63
2023/06/06 06:12:03;;;;;;;;;;;;;;;;;;5102342;28;20091;-64
2023/06/06 06:16:29;;;;;;;;;;;;;;;;;;5109716;27;19920;-63
2023/06/06 06:23:35;;;;;;;;;;;;;;;;;;5109744;27;19923;-64
2023/06/06 06:26:01;;;;;;;;;;;;;;;;;;5115285;28;19963;-63
2023/06/06 06:28:29;;;;;;;;;;;;;;;;;;5093391;28;19951;-66
2023/06/06 06:30:55;;;;;;;;;;;;;;;;;;5107443;28;19931;-66
2023/06/06 06:49:48;;;;;;;;;;;;;;;;;;5122010;27;19920;-65
2023/06/06 06:52:17;;;;;;;;;;;;;;;;;;5096338;28;20770;-65
2023/06/06 06:56:16;;;;;;;;;;;;;;;;;;5122576;27;19916;-65
2023/06/06 06:58:42;;;;;;;;;;;;;;;;;;5104473;28;19928;-66
2023/06/06 07:01:53;;;;;;;;;;;;;;;;;;5048913;27;2146154;-64
2023/06/06 07:11:43;;;;;;;;;;;;;;;;;;5085429;27;19912;-65
2023/06/06 07:15:37;;;;;;;;;;;;;;;;;;5109360;27;20465;-65
2023/06/06 07:20:21;;;;;;;;;;;;;;;;;;5075889;27;19923;-66
2023/06/06 07:22:47;;;;;;;;;;;;;;;;;;5084089;28;19923;-65
2023/06/06 07:27:54;;;;;;;;;;;;;;;;;;5065279;28;19921;-65
2023/06/06 07:33:52;;;;;;;;;;;;;;;;;;5059023;28;19927;-64
2023/06/06 07:40:28;;;;;;;;;;;;;;;;;;5084770;27;20399;-67
2023/06/06 07:42:54;;;;;;;;;;;;;;;;;;5082200;28;19912;-66
2023/06/06 07:45:20;;;;;;;;;;;;;;;;;;5084573;28;19915;-66
2023/06/06 07:47:46;;;;;;;;;;;;;;;;;;5089225;28;19908;-65
2023/06/06 07:50:13;;;;;;;;;;;;;;;;;;5087398;28;19912;-66
2023/06/06 07:52:43;;;;;;;;;;;;;;;;;;5088173;28;20322;-66
2023/06/06 07:55:09;;;;;;;;;;;;;;;;;;5088053;28;19940;-65
2023/06/06 07:57:35;;;;;;;;;;;;;;;;;;5086811;28;19916;-66
2023/06/06 08:00:06;;;;;;;;;;;;;;;;;;5081687;28;19925;-66
2023/06/06 08:02:58;;;;;;;;;;;;;;;;;;5065806;28;19913;-67
2023/06/06 08:05:24;;;;;;;;;;;;;;;;;;5077936;28;19919;-66
2023/06/06 08:07:50;;;;;;;;;;;;;;;;;;5066281;28;19948;-66
2023/06/06 08:10:16;;;;;;;;;;;;;;;;;;5080345;28;19925;-65
2023/06/06 08:12:42;;;;;;;;;;;;;;;;;;5065386;28;19974;-66
2023/06/06 08:15:09;;;;;;;;;;;;;;;;;;5066334;28;19913;-65
2023/06/06 08:19:23;;;;;;;;;;;;;;;;;;5141146;27;20430;-66
2023/06/06 08:21:49;;;;;;;;;;;;;;;;;;5127766;28;19965;-66
2023/06/06 08:24:15;;;;;;;;;;;;;;;;;;5126274;28;19916;-65
2023/06/06 08:26:41;;;;;;;;;;;;;;;;;;5119974;28;19972;-67
2023/06/06 08:29:07;;;;;;;;;;;;;;;;;;5122771;28;19912;-65
2023/06/06 08:31:33;;;;;;;;;;;;;;;;;;5124364;28;19970;-65
2023/06/06 08:33:59;;;;;;;;;;;;;;;;;;5127372;28;19943;-67
2023/06/06 08:36:25;;;;;;;;;;;;;;;;;;5123508;28;19908;-66
2023/06/06 08:38:52;;;;;;;;;;;;;;;;;;5125636;28;20374;-65
2023/06/06 08:41:18;;;;;;;;;;;;;;;;;;5118577;28;19919;-67
2023/06/06 08:43:44;;;;;;;;;;;;;;;;;;5125514;28;19912;-65
2023/06/06 08:46:11;;;;;;;;;;;;;;;;;;5092341;28;19951;-66
2023/06/06 08:48:37;;;;;;;;;;;;;;;;;;5110083;28;19923;-66
2023/06/06 08:51:03;;;;;;;;;;;;;;;;;;5112547;28;19908;-66
2023/06/06 08:53:29;;;;;;;;;;;;;;;;;;5125346;28;19914;-67
2023/06/06 08:55:55;;;;;;;;;;;;;;;;;;5128715;28;19956;-67
2023/06/06 08:58:21;;;;;;;;;;;;;;;;;;5119506;28;19923;-67
2023/06/06 09:00:49;;;;;;;;;;;;;;;;;;5125694;28;19912;-65
2023/06/06 09:03:15;;;;;;;;;;;;;;;;;;5105047;28;19908;-66
2023/06/06 09:05:41;;;;;;;;;;;;;;;;;;5104412;28;19918;-65
2023/06/06 09:08:07;;;;;;;;;;;;;;;;;;5110097;28;19920;-66
2023/06/06 09:10:33;;;;;;;;;;;;;;;;;;5108830;28;19943;-66
2023/06/06 09:12:59;;;;;;;;;;;;;;;;;;5120075;28;19912;-67
2023/06/06 09:15:26;;;;;;;;;;;;;;;;;;5123270;28;19998;-66
2023/06/06 09:17:52;;;;;;;;;;;;;;;;;;5124154;28;20583;-65
2023/06/06 09:20:18;;;;;;;;;;;;;;;;;;5125603;28;19911;-67
2023/06/06 09:22:44;;;;;;;;;;;;;;;;;;5124847;28;20530;-66
2023/06/06 09:25:10;;;;;;;;;;;;;;;;;;5112320;28;19930;-67
2023/06/06 09:27:35;;;;;;;;;;;;;;;;;;5105795;28;19970;-67
2023/06/06 09:30:01;;;;;;;;;;;;;;;;;;5099415;28;19915;-66
2023/06/06 09:32:28;;;;;;;;;;;;;;;;;;5110091;28;19912;-65
2023/06/06 09:34:54;;;;;;;;;;;;;;;;;;5100940;28;20644;-66
2023/06/06 09:37:21;;;;;;;;;;;;;;;;;;5103871;28;19984;-67
2023/06/06 09:39:47;;;;;;;;;;;;;;;;;;5103554;28;19935;-66
2023/06/06 09:42:13;;;;;;;;;;;;;;;;;;5112907;28;19914;-66
2023/06/06 09:44:39;;;;;;;;;;;;;;;;;;5110786;28;19908;-67
2023/06/06 09:47:06;;;;;;;;;;;;;;;;;;5112264;28;20006;-67
2023/06/06 09:49:32;;;;;;;;;;;;;;;;;;5111539;28;19916;-67
2023/06/06 09:51:58;;;;;;;;;;;;;;;;;;5112742;28;19948;-68
2023/06/06 09:54:24;;;;;;;;;;;;;;;;;;5103105;28;20053;-66
2023/06/06 09:56:51;;;;;;;;;;;;;;;;;;5074486;28;19908;-66
2023/06/06 09:59:17;;;;;;;;;;;;;;;;;;5098651;28;19927;-66
2023/06/06 10:01:44;;;;;;;;;;;;;;;;;;5112836;28;19916;-67
2023/06/06 10:04:10;;;;;;;;;;;;;;;;;;5112504;28;20422;-66
2023/06/06 10:06:39;;;;;;;;;;;;;;;;;;5102817;28;19912;-67
2023/06/06 10:09:05;;;;;;;;;;;;;;;;;;5106712;28;19912;-65
2023/06/06 10:11:31;;;;;;;;;;;;;;;;;;5113675;28;19912;-67
2023/06/06 10:13:57;;;;;;;;;;;;;;;;;;5111574;28;19908;-68
2023/06/06 10:16:23;;;;;;;;;;;;;;;;;;5115171;28;20047;-67
2023/06/06 10:18:49;;;;;;;;;;;;;;;;;;5080072;28;19931;-68
2023/06/06 10:21:15;;;;;;;;;;;;;;;;;;5093013;28;19970;-67
2023/06/06 10:23:41;;;;;;;;;;;;;;;;;;5092981;28;19920;-66
2023/06/06 10:26:07;;;;;;;;;;;;;;;;;;5093967;28;19916;-65
2023/06/06 10:28:33;;;;;;;;;;;;;;;;;;5094470;28;19957;-66
2023/06/06 10:30:59;;;;;;;;;;;;;;;;;;5090075;28;19915;-65
2023/06/06 10:33:25;;;;;;;;;;;;;;;;;;5090555;28;20379;-65
2023/06/06 10:35:51;;;;;;;;;;;;;;;;;;5090706;28;19912;-66
2023/06/06 10:38:18;;;;;;;;;;;;;;;;;;5089005;28;19926;-66
2023/06/06 10:42:37;;;;;;;;;;;;;;;;;;5082699;27;19927;-65
2023/06/06 10:45:03;;;;;;;;;;;;;;;;;;5067393;28;19913;-65
2023/06/06 10:47:30;;;;;;;;;;;;;;;;;;5067888;28;19955;-67
2023/06/06 10:49:56;;;;;;;;;;;;;;;;;;5073518;28;20386;-65
2023/06/06 10:52:22;;;;;;;;;;;;;;;;;;5070892;28;19917;-66
2023/06/06 10:54:48;;;;;;;;;;;;;;;;;;5068264;28;19913;-66
2023/06/06 10:57:14;;;;;;;;;;;;;;;;;;5068018;28;19919;-66
2023/06/06 10:59:41;;;;;;;;;;;;;;;;;;5069301;28;19927;-66
2023/06/06 11:02:07;;;;;;;;;;;;;;;;;;5069110;28;19925;-66
2023/06/06 11:04:34;;;;;;;;;;;;;;;;;;5069505;28;20363;-66
2023/06/06 11:07:00;;;;;;;;;;;;;;;;;;5068828;28;20008;-67
2023/06/06 11:09:26;;;;;;;;;;;;;;;;;;5068064;28;19959;-66
2023/06/06 11:11:52;;;;;;;;;;;;;;;;;;5068709;28;19913;-66
2023/06/06 11:14:18;;;;;;;;;;;;;;;;;;5071878;28;20441;-68
2023/06/06 11:16:44;;;;;;;;;;;;;;;;;;5068223;28;19913;-69
2023/06/06 11:19:11;;;;;;;;;;;;;;;;;;5078151;28;19912;-68
2023/06/06 11:21:37;;;;;;;;;;;;;;;;;;5063864;28;19925;-68
2023/06/06 11:24:03;;;;;;;;;;;;;;;;;;5068211;28;19966;-68
2023/06/06 11:26:29;;;;;;;;;;;;;;;;;;5067283;28;19913;-68
2023/06/06 11:28:57;;;;;;;;;;;;;;;;;;5067840;28;19913;-68
2023/06/06 11:31:23;;;;;;;;;;;;;;;;;;5067677;28;19909;-68
2023/06/06 11:33:50;;;;;;;;;;;;;;;;;;5069502;28;20356;-68
2023/06/06 11:36:16;;;;;;;;;;;;;;;;;;5063444;28;19919;-68
2023/06/06 11:38:42;;;;;;;;;;;;;;;;;;5065353;28;20003;-68
2023/06/06 11:41:08;;;;;;;;;;;;;;;;;;5067141;28;19936;-68
2023/06/06 11:43:33;;;;;;;;;;;;;;;;;;5066435;28;19908;-68
2023/06/06 11:46:00;;;;;;;;;;;;;;;;;;5067771;28;20356;-67
2023/06/06 11:48:27;;;;;;;;;;;;;;;;;;5065575;28;20015;-66
2023/06/06 11:50:53;;;;;;;;;;;;;;;;;;5066227;28;19967;-69
2023/06/06 11:53:19;;;;;;;;;;;;;;;;;;5057785;28;19940;-69
2023/06/06 11:55:45;;;;;;;;;;;;;;;;;;5054605;28;19909;-69
2023/06/06 11:58:11;;;;;;;;;;;;;;;;;;5055765;28;19909;-68
2023/06/06 12:00:37;;;;;;;;;;;;;;;;;;5055609;28;20426;-69
2023/06/06 12:03:03;;;;;;;;;;;;;;;;;;5054191;28;19951;-68
2023/06/06 12:05:30;;;;;;;;;;;;;;;;;;5045947;28;19959;-69
2023/06/06 12:07:59;;;;;;;;;;;;;;;;;;5034050;28;19945;-70
2023/06/06 12:10:25;;;;;;;;;;;;;;;;;;5034807;28;19959;-70
2023/06/06 12:12:51;;;;;;;;;;;;;;;;;;5035070;28;19909;-69
2023/06/06 12:15:17;;;;;;;;;;;;;;;;;;5054832;28;19936;-69
2023/06/06 12:17:43;;;;;;;;;;;;;;;;;;5052756;28;20356;-69
2023/06/06 12:20:10;;;;;;;;;;;;;;;;;;5052211;28;20057;-69
2023/06/06 12:22:36;;;;;;;;;;;;;;;;;;5054088;28;19989;-69
2023/06/06 12:25:03;;;;;;;;;;;;;;;;;;5052524;28;19913;-70
2023/06/06 12:27:29;;;;;;;;;;;;;;;;;;5054341;28;20283;-70
2023/06/06 12:29:56;;;;;;;;;;;;;;;;;;5053159;28;19912;-70
2023/06/06 12:32:23;;;;;;;;;;;;;;;;;;5055518;28;20012;-70
2023/06/06 12:34:49;;;;;;;;;;;;;;;;;;5054887;28;19974;-69
2023/06/06 12:37:15;;;;;;;;;;;;;;;;;;5051647;28;19924;-70
2023/06/06 12:39:41;;;;;;;;;;;;;;;;;;5052705;28;19913;-69
2023/06/06 12:42:07;;;;;;;;;;;;;;;;;;5052689;28;19948;-70
2023/06/06 12:44:33;;;;;;;;;;;;;;;;;;5053939;28;19913;-70
2023/06/06 12:46:59;;;;;;;;;;;;;;;;;;5050862;28;19919;-70
2023/06/06 12:49:25;;;;;;;;;;;;;;;;;;5053839;28;20300;-69
2023/06/06 12:51:51;;;;;;;;;;;;;;;;;;5054388;28;19909;-71
2023/06/06 12:54:17;;;;;;;;;;;;;;;;;;5054143;28;19913;-70
2023/06/06 12:56:43;;;;;;;;;;;;;;;;;;5054370;28;20357;-70
2023/06/06 12:59:11;;;;;;;;;;;;;;;;;;5052831;28;19909;-71
2023/06/06 13:01:39;;;;;;;;;;;;;;;;;;5052119;28;20050;-71
2023/06/06 13:04:05;;;;;;;;;;;;;;;;;;5052625;28;19908;-70
2023/06/06 13:06:31;;;;;;;;;;;;;;;;;;5052694;28;19916;-70
2023/06/06 13:08:57;;;;;;;;;;;;;;;;;;5053485;28;20289;-71
2023/06/06 13:11:23;;;;;;;;;;;;;;;;;;5053527;28;19940;-70
2023/06/06 13:13:49;;;;;;;;;;;;;;;;;;5053157;28;20313;-71
2023/06/06 13:16:15;;;;;;;;;;;;;;;;;;5053449;28;20458;-70
2023/06/06 13:18:41;;;;;;;;;;;;;;;;;;5053837;28;19913;-70
2023/06/06 13:21:07;;;;;;;;;;;;;;;;;;5054783;28;20372;-70
2023/06/06 13:23:33;;;;;;;;;;;;;;;;;;5055054;28;19908;-70
2023/06/06 13:25:59;;;;;;;;;;;;;;;;;;5054843;28;20012;-70
2023/06/06 13:28:25;;;;;;;;;;;;;;;;;;5054536;28;19909;-70
2023/06/06 13:30:51;;;;;;;;;;;;;;;;;;5054703;28;19952;-70
2023/06/06 13:33:19;;;;;;;;;;;;;;;;;;5054877;28;19920;-70
2023/06/06 13:35:45;;;;;;;;;;;;;;;;;;5054234;28;20403;-70
2023/06/06 13:38:11;;;;;;;;;;;;;;;;;;5054891;28;19909;-71
2023/06/06 13:40:37;;;;;;;;;;;;;;;;;;5054294;28;19963;-70
2023/06/06 13:43:06;;;;;;;;;;;;;;;;;;5054084;28;19909;-71
2023/06/06 13:45:32;;;;;;;;;;;;;;;;;;5054506;28;20280;-71
2023/06/06 13:47:58;;;;;;;;;;;;;;;;;;5054382;28;19938;-71
2023/06/06 13:50:24;;;;;;;;;;;;;;;;;;5053896;28;20364;-71
2023/06/06 13:52:50;;;;;;;;;;;;;;;;;;5054209;28;20384;-69
2023/06/06 13:55:16;;;;;;;;;;;;;;;;;;5053667;28;19909;-69
2023/06/06 13:57:50;;;;;;;;;;;;;;;;;;5054408;28;19913;-69
2023/06/06 14:00:16;;;;;;;;;;;;;;;;;;5054615;28;19963;-71
2023/06/06 14:02:42;;;;;;;;;;;;;;;;;;5053852;28;19913;-69
2023/06/06 14:05:08;;;;;;;;;;;;;;;;;;5052959;28;19909;-69
2023/06/06 14:07:34;;;;;;;;;;;;;;;;;;5054123;28;19908;-69
2023/06/06 14:10:01;;;;;;;;;;;;;;;;;;5053764;28;19908;-70
2023/06/06 14:12:27;;;;;;;;;;;;;;;;;;5054002;28;20396;-69
2023/06/06 14:14:53;;;;;;;;;;;;;;;;;;5054166;28;19909;-70
2023/06/06 14:17:19;;;;;;;;;;;;;;;;;;5053702;28;20024;-70
2023/06/06 14:19:50;;;;;;;;;;;;;;;;;;5053988;28;20405;-71
2023/06/06 14:24:48;;;;;;;;;;;;;;;;;;5053923;28;19908;-70
2023/06/06 14:27:14;;;;;;;;;;;;;;;;;;5053839;28;19917;-71
2023/06/06 14:29:40;;;;;;;;;;;;;;;;;;5053844;28;20269;-70
2023/06/06 14:32:10;;;;;;;;;;;;;;;;;;5053411;28;19909;-70
2023/06/06 14:34:37;;;;;;;;;;;;;;;;;;5053702;28;19935;-70
2023/06/06 14:37:03;;;;;;;;;;;;;;;;;;5052369;28;19915;-70
2023/06/06 14:39:29;;;;;;;;;;;;;;;;;;5053392;28;20244;-70
2023/06/06 14:41:55;;;;;;;;;;;;;;;;;;5053416;28;20273;-70
2023/06/06 14:44:22;;;;;;;;;;;;;;;;;;5053618;28;19909;-70
2023/06/06 14:46:49;;;;;;;;;;;;;;;;;;5053159;28;19909;-70
2023/06/06 14:49:15;;;;;;;;;;;;;;;;;;5053632;28;19909;-70
2023/06/06 14:51:41;;;;;;;;;;;;;;;;;;5053257;28;19915;-70
2023/06/06 14:54:07;;;;;;;;;;;;;;;;;;5053788;28;19913;-70
2023/06/06 14:56:33;;;;;;;;;;;;;;;;;;5053764;28;19909;-70
2023/06/06 14:58:59;;;;;;;;;;;;;;;;;;5053088;28;20003;-70
2023/06/06 15:01:25;;;;;;;;;;;;;;;;;;5053448;28;19924;-70
2023/06/06 15:03:52;;;;;;;;;;;;;;;;;;5053456;28;19915;-70
2023/06/06 15:06:18;;;;;;;;;;;;;;;;;;5053028;28;19916;-70
2023/06/06 15:08:44;;;;;;;;;;;;;;;;;;5052859;28;19912;-70
2023/06/06 15:11:10;;;;;;;;;;;;;;;;;;5053430;28;19963;-70
2023/06/06 15:13:36;;;;;;;;;;;;;;;;;;5053006;28;19913;-70
2023/06/06 15:16:08;;;;;;;;;;;;;;;;;;5053413;28;19913;-70
2023/06/06 15:18:33;;;;;;;;;;;;;;;;;;5053572;28;19909;-71
2023/06/06 15:20:59;;;;;;;;;;;;;;;;;;5052902;28;19995;-70
2023/06/06 15:23:25;;;;;;;;;;;;;;;;;;5053307;28;19963;-71
2023/06/06 15:25:51;;;;;;;;;;;;;;;;;;5052047;28;19912;-70
2023/06/06 15:28:17;;;;;;;;;;;;;;;;;;5054640;28;19920;-71
2023/06/06 15:30:44;;;;;;;;;;;;;;;;;;5055530;28;19909;-71
2023/06/06 15:33:10;;;;;;;;;;;;;;;;;;5054851;28;20272;-71
2023/06/06 15:35:35;;;;;;;;;;;;;;;;;;5054635;28;20527;-71
2023/06/06 15:38:01;;;;;;;;;;;;;;;;;;5055360;28;19960;-71
2023/06/06 15:40:27;;;;;;;;;;;;;;;;;;5053713;28;19913;-70
2023/06/06 15:42:53;;;;;;;;;;;;;;;;;;5054893;28;19967;-71
2023/06/06 15:45:19;;;;;;;;;;;;;;;;;;5055970;28;19913;-71
2023/06/06 15:47:45;;;;;;;;;;;;;;;;;;5055055;28;19909;-71
2023/06/06 15:50:11;;;;;;;;;;;;;;;;;;5054550;28;19936;-71
2023/06/06 15:52:37;;;;;;;;;;;;;;;;;;5054526;28;19913;-70
2023/06/06 15:55:03;;;;;;;;;;;;;;;;;;5054095;28;19995;-70
2023/06/06 15:57:29;;;;;;;;;;;;;;;;;;5054474;28;19909;-70
2023/06/06 15:59:55;;;;;;;;;;;;;;;;;;5054414;28;19909;-70
2023/06/06 16:02:21;;;;;;;;;;;;;;;;;;5054509;28;19917;-70
2023/06/06 16:04:47;;;;;;;;;;;;;;;;;;5056355;28;19947;-70
2023/06/06 16:07:13;;;;;;;;;;;;;;;;;;5056452;28;19908;-70
2023/06/06 16:09:39;;;;;;;;;;;;;;;;;;5055979;28;19909;-70
2023/06/06 16:12:05;;;;;;;;;;;;;;;;;;5056318;28;20046;-70
2023/06/06 16:14:31;;;;;;;;;;;;;;;;;;5054920;28;19909;-70
2023/06/06 16:16:57;;;;;;;;;;;;;;;;;;5054531;28;19920;-70
2023/06/06 16:19:23;;;;;;;;;;;;;;;;;;5054865;28;19995;-72
2023/06/06 16:21:49;;;;;;;;;;;;;;;;;;5054768;28;19999;-68
2023/06/06 16:24:15;;;;;;;;;;;;;;;;;;5055640;28;19963;-70
2023/06/06 16:26:41;;;;;;;;;;;;;;;;;;5056009;28;19909;-69
2023/06/06 16:29:07;;;;;;;;;;;;;;;;;;5055882;28;19917;-69
2023/06/06 16:31:33;;;;;;;;;;;;;;;;;;5055551;28;19954;-70
2023/06/06 16:33:59;;;;;;;;;;;;;;;;;;5055773;28;20328;-71
2023/06/06 16:36:25;;;;;;;;;;;;;;;;;;5056042;28;19955;-69
2023/06/06 16:38:51;;;;;;;;;;;;;;;;;;5054030;28;19909;-69
2023/06/06 16:41:17;;;;;;;;;;;;;;;;;;5055511;28;19931;-70
2023/06/06 16:43:43;;;;;;;;;;;;;;;;;;5055688;28;19908;-69
2023/06/06 16:46:09;;;;;;;;;;;;;;;;;;5055281;28;19909;-70
2023/06/06 16:48:35;;;;;;;;;;;;;;;;;;5055838;28;19909;-69
2023/06/06 16:51:01;;;;;;;;;;;;;;;;;;5055527;28;19909;-71
2023/06/06 16:53:28;;;;;;;;;;;;;;;;;;5055595;28;19919;-69
2023/06/06 16:55:54;;;;;;;;;;;;;;;;;;5055747;28;19909;-70
2023/06/06 16:58:20;;;;;;;;;;;;;;;;;;5053802;28;19909;-70
2023/06/06 17:00:48;;;;;;;;;;;;;;;;;;5055274;28;19967;-70
2023/06/06 17:03:14;;;;;;;;;;;;;;;;;;5055864;28;19974;-70
2023/06/06 17:05:40;;;;;;;;;;;;;;;;;;5054846;28;19913;-71
2023/06/06 17:08:06;;;;;;;;;;;;;;;;;;5055223;28;19909;-70
2023/06/06 17:10:32;;;;;;;;;;;;;;;;;;5055126;28;19954;-70
2023/06/06 17:13:00;;;;;;;;;;;;;;;;;;5054903;28;19909;-70
2023/06/06 17:15:26;;;;;;;;;;;;;;;;;;5054132;28;20268;-70
2023/06/06 17:17:52;;;;;;;;;;;;;;;;;;5055607;28;19916;-70
2023/06/06 17:20:18;;;;;;;;;;;;;;;;;;5054519;28;20284;-70
2023/06/06 17:22:44;;;;;;;;;;;;;;;;;;5054838;28;19924;-70
2023/06/06 17:25:10;;;;;;;;;;;;;;;;;;5054906;28;20356;-70
2023/06/06 17:27:36;;;;;;;;;;;;;;;;;;5054421;28;20062;-71
2023/06/06 17:30:02;;;;;;;;;;;;;;;;;;5054860;28;19970;-71
2023/06/06 17:32:28;;;;;;;;;;;;;;;;;;5054783;28;19908;-71
2023/06/06 17:34:54;;;;;;;;;;;;;;;;;;5054322;28;19916;-70
2023/06/06 17:37:20;;;;;;;;;;;;;;;;;;5054850;28;19908;-71
2023/06/06 17:39:46;;;;;;;;;;;;;;;;;;5054640;28;19916;-70
2023/06/06 17:42:14;;;;;;;;;;;;;;;;;;5053992;28;19921;-72
2023/06/06 17:44:40;;;;;;;;;;;;;;;;;;5054567;28;19908;-70
2023/06/06 17:47:06;;;;;;;;;;;;;;;;;;5054507;28;19909;-71
2023/06/06 17:49:32;;;;;;;;;;;;;;;;;;5054078;28;19955;-71
2023/06/06 17:51:58;;;;;;;;;;;;;;;;;;5053967;28;19909;-71
2023/06/06 17:54:24;;;;;;;;;;;;;;;;;;5052772;28;19920;-71
2023/06/06 17:56:50;;;;;;;;;;;;;;;;;;5054377;28;19908;-71
2023/06/06 17:59:16;;;;;;;;;;;;;;;;;;5054244;28;20257;-71
2023/06/06 18:01:42;;;;;;;;;;;;;;;;;;5053729;28;20043;-72
2023/06/06 18:04:08;;;;;;;;;;;;;;;;;;5054451;28;19916;-71
2023/06/06 18:06:34;;;;;;;;;;;;;;;;;;5054117;28;19915;-72
2023/06/06 18:09:00;;;;;;;;;;;;;;;;;;5053657;28;19913;-71
2023/06/06 18:11:26;;;;;;;;;;;;;;;;;;5054069;28;19979;-71
2023/06/06 18:13:52;;;;;;;;;;;;;;;;;;5052757;28;19909;-72
2023/06/06 18:16:18;;;;;;;;;;;;;;;;;;5053640;28;20011;-71
2023/06/06 18:18:47;;;;;;;;;;;;;;;;;;5054017;28;20392;-70
2023/06/06 18:21:13;;;;;;;;;;;;;;;;;;5053886;28;19916;-72
2023/06/06 18:23:38;;;;;;;;;;;;;;;;;;5053522;28;19908;-71
2023/06/06 18:26:07;;;;;;;;;;;;;;;;;;5053888;28;19916;-71
2023/06/06 18:28:32;;;;;;;;;;;;;;;;;;5053858;28;19909;-70
2023/06/06 18:30:58;;;;;;;;;;;;;;;;;;5053394;28;19959;-71
2023/06/06 18:33:24;;;;;;;;;;;;;;;;;;5053854;28;19913;-72
2023/06/06 18:35:50;;;;;;;;;;;;;;;;;;5053756;28;20007;-70
2023/06/06 18:38:16;;;;;;;;;;;;;;;;;;5053426;28;20106;-71
2023/06/06 18:40:42;;;;;;;;;;;;;;;;;;5053543;28;19920;-71
2023/06/06 18:43:08;;;;;;;;;;;;;;;;;;5053901;28;19920;-71
2023/06/06 18:45:35;;;;;;;;;;;;;;;;;;5053342;28;20280;-71
2023/06/06 18:48:02;;;;;;;;;;;;;;;;;;5053693;28;19923;-71
2023/06/06 18:50:28;;;;;;;;;;;;;;;;;;5053622;28;20365;-72
2023/06/06 18:53:27;;;;;;;;;;;;;;;;;;5111992;27;19918;-71
2023/06/06 18:55:53;;;;;;;;;;;;;;;;;;5111764;28;20002;-71
2023/06/06 18:59:28;;;;;;;;;;;;;;;;;;5152671;27;19922;-73
2023/06/06 19:01:54;;;;;;;;;;;;;;;;;;5134320;27;19937;-72
2023/06/06 19:04:20;;;;;;;;;;;;;;;;;;5152916;27;19907;-71
2023/06/06 19:06:47;;;;;;;;;;;;;;;;;;5152502;27;19911;-72
2023/06/06 19:09:13;;;;;;;;;;;;;;;;;;5152976;27;19911;-71
2023/06/06 19:11:39;;;;;;;;;;;;;;;;;;5152749;27;20003;-72
2023/06/06 19:14:05;;;;;;;;;;;;;;;;;;5152666;27;19907;-71